createdAt,value
2017-05-12T04:43:50.270Z,15.76
2017-05-12T04:44:15.722Z,15.75
2017-05-12T04:44:41.223Z,15.77
2017-05-12T04:45:06.695Z,15.77
2017-05-12T04:45:32.171Z,15.77
2017-05-12T04:45:57.646Z,15.72
2017-05-12T04:46:23.110Z,15.8
2017-05-12T04:46:48.596Z,15.8
2017-05-12T04:47:14.068Z,15.84
2017-05-12T04:47:39.559Z,15.7
2017-05-12T04:48:04.998Z,15.88
2017-05-12T04:48:30.447Z,15.86
2017-05-12T04:48:55.940Z,15.82
2017-05-12T04:49:21.417Z,15.84
2017-05-12T04:49:46.866Z,15.9
2017-05-12T04:50:12.375Z,15.77
2017-05-12T04:50:37.837Z,15.86
2017-05-12T04:51:03.302Z,15.86
2017-05-12T04:51:28.828Z,15.86
2017-05-12T04:51:54.242Z,15.88
2017-05-12T04:52:19.702Z,15.84
2017-05-12T04:52:45.192Z,15.9
2017-05-12T04:53:10.642Z,15.83
2017-05-12T04:53:36.147Z,15.83
2017-05-12T04:54:01.583Z,15.79
2017-05-12T04:54:27.039Z,15.86
2017-05-12T04:54:52.541Z,15.94
2017-05-12T04:55:17.944Z,15.94
2017-05-12T04:55:43.508Z,15.86
2017-05-12T04:56:08.939Z,15.83
2017-05-12T04:56:34.411Z,15.98
2017-05-12T04:56:59.880Z,15.84
2017-05-12T04:57:25.352Z,15.86
2017-05-12T04:57:50.820Z,15.9
2017-05-12T04:58:16.297Z,15.94
2017-05-12T04:58:41.707Z,15.86
2017-05-12T04:59:07.188Z,15.95
2017-05-12T04:59:32.802Z,15.92
2017-05-12T04:59:58.244Z,15.9
2017-05-12T05:00:23.720Z,15.86
2017-05-12T05:00:49.195Z,15.82
2017-05-12T05:01:14.685Z,15.92
2017-05-12T05:01:40.115Z,15.9
2017-05-12T05:02:05.645Z,15.83
2017-05-12T05:02:31.101Z,15.86
2017-05-12T05:02:56.558Z,15.83
2017-05-12T05:03:22.035Z,15.86
2017-05-12T05:03:47.523Z,15.83
2017-05-12T05:04:12.947Z,15.77
2017-05-12T05:04:38.417Z,15.84
2017-05-12T05:05:03.889Z,15.9
2017-05-12T05:05:29.365Z,15.84
2017-05-12T05:05:54.839Z,15.91
2017-05-12T05:06:20.294Z,15.76
2017-05-12T05:06:45.798Z,15.79
2017-05-12T05:07:11.259Z,15.68
2017-05-12T05:07:36.755Z,15.8
2017-05-12T05:08:02.222Z,15.8
2017-05-12T05:08:27.745Z,15.76
2017-05-12T05:08:53.222Z,15.72
2017-05-12T05:09:18.709Z,15.75
2017-05-12T05:09:44.197Z,15.76
2017-05-12T05:10:09.664Z,15.72
2017-05-12T05:10:35.134Z,15.77
2017-05-12T05:11:00.620Z,15.73
2017-05-12T05:11:26.123Z,15.72
2017-05-12T05:11:51.598Z,15.73
2017-05-12T05:12:17.086Z,15.73
2017-05-12T05:12:42.585Z,15.73
2017-05-12T05:13:08.054Z,15.7
2017-05-12T05:13:33.523Z,15.76
2017-05-12T05:13:58.991Z,15.76
2017-05-12T05:14:24.484Z,15.75
2017-05-12T05:14:49.991Z,15.73
2017-05-12T05:15:15.436Z,15.77
2017-05-12T05:15:40.992Z,15.76
2017-05-12T05:16:06.492Z,15.8
2017-05-12T05:16:31.962Z,15.77
2017-05-12T05:16:57.471Z,15.64
2017-05-12T05:17:22.935Z,15.65
2017-05-12T05:17:48.480Z,15.7
2017-05-12T05:18:13.910Z,15.62
2017-05-12T05:18:39.403Z,15.64
2017-05-12T05:19:04.874Z,15.62
2017-05-12T05:19:30.347Z,15.59
2017-05-12T05:19:55.830Z,15.65
2017-05-12T05:20:21.304Z,15.61
2017-05-12T05:20:46.795Z,15.61
2017-05-12T05:21:12.283Z,15.61
2017-05-12T05:21:37.755Z,15.61
2017-05-12T05:22:03.242Z,15.58
2017-05-12T05:22:28.728Z,15.54
2017-05-12T05:22:54.202Z,15.57
2017-05-12T05:23:19.684Z,15.59
2017-05-12T05:23:45.165Z,15.68
2017-05-12T05:24:10.633Z,15.72
2017-05-12T05:24:36.132Z,15.72
2017-05-12T05:25:01.614Z,15.68
2017-05-12T05:25:27.114Z,15.73
2017-05-12T05:25:52.603Z,15.67
2017-05-12T05:26:18.081Z,15.7
2017-05-12T05:26:43.561Z,15.75
2017-05-12T05:27:09.037Z,15.79
2017-05-12T05:27:34.528Z,15.75
2017-05-12T05:28:00.012Z,15.72
2017-05-12T05:28:25.509Z,15.77
2017-05-12T05:28:50.981Z,15.67
2017-05-12T05:29:16.508Z,15.65
2017-05-12T05:29:42.027Z,15.7
2017-05-12T05:30:07.512Z,15.68
2017-05-12T05:30:32.990Z,15.65
2017-05-12T05:30:58.463Z,15.75
2017-05-12T05:31:23.937Z,15.62
2017-05-12T05:31:49.436Z,15.72
2017-05-12T05:32:14.927Z,15.77
2017-05-12T05:32:40.412Z,15.65
2017-05-12T05:33:05.884Z,15.68
2017-05-12T05:33:31.373Z,15.62
2017-05-12T05:33:56.858Z,15.68
2017-05-12T05:34:22.347Z,15.64
2017-05-12T05:34:47.832Z,15.73
2017-05-12T05:35:13.340Z,15.68
2017-05-12T05:35:38.819Z,15.72
2017-05-12T05:36:04.310Z,15.73
2017-05-12T05:36:29.855Z,15.7
2017-05-12T05:36:55.358Z,15.73
2017-05-12T05:37:20.768Z,15.76
2017-05-12T05:37:46.246Z,15.76
2017-05-12T05:38:11.739Z,15.8
2017-05-12T05:38:37.214Z,15.72
2017-05-12T05:39:02.703Z,15.79
2017-05-12T05:39:28.179Z,15.72
2017-05-12T05:39:53.651Z,15.8
2017-05-12T05:40:19.150Z,15.84
2017-05-12T05:40:44.623Z,15.73
2017-05-12T05:41:10.099Z,15.8
2017-05-12T05:41:35.580Z,15.77
2017-05-12T05:42:01.044Z,15.88
2017-05-12T05:42:26.522Z,15.76
2017-05-12T05:42:51.984Z,15.88
2017-05-12T05:43:17.459Z,15.82
2017-05-12T05:43:42.958Z,15.84
2017-05-12T05:44:08.410Z,15.84
2017-05-12T05:44:33.881Z,15.82
2017-05-12T05:44:59.362Z,15.82
2017-05-12T05:45:24.835Z,15.9
2017-05-12T05:45:50.347Z,15.83
2017-05-12T05:46:15.789Z,15.83
2017-05-12T05:46:41.275Z,15.88
2017-05-12T05:47:06.757Z,15.88
2017-05-12T05:47:32.220Z,15.84
2017-05-12T05:47:57.699Z,15.9
2017-05-12T05:48:23.171Z,15.9
2017-05-12T05:48:48.652Z,15.9
2017-05-12T05:49:14.143Z,15.92
2017-05-12T05:49:39.621Z,15.88
2017-05-12T05:50:05.071Z,15.82
2017-05-12T05:50:30.530Z,15.88
2017-05-12T05:50:56.016Z,15.94
2017-05-12T05:51:21.474Z,15.9
2017-05-12T05:51:46.955Z,15.88
2017-05-12T05:52:12.445Z,15.94
2017-05-12T05:52:37.921Z,15.94
2017-05-12T05:53:03.385Z,15.94
2017-05-12T05:53:28.849Z,15.9
2017-05-12T05:53:54.360Z,16
2017-05-12T05:54:19.829Z,15.92
2017-05-12T05:54:45.296Z,15.98
2017-05-12T05:55:10.801Z,15.95
2017-05-12T05:55:36.269Z,16
2017-05-12T05:56:01.745Z,16.02
2017-05-12T05:56:27.231Z,15.91
2017-05-12T05:56:52.727Z,15.94
2017-05-12T05:57:18.205Z,16.01
2017-05-12T05:57:43.663Z,16
2017-05-12T05:58:09.139Z,16
2017-05-12T05:58:34.609Z,16
2017-05-12T05:59:00.096Z,15.95
2017-05-12T05:59:25.588Z,16.04
2017-05-12T05:59:51.039Z,16.02
2017-05-12T06:00:16.495Z,16
2017-05-12T06:00:41.960Z,16
2017-05-12T06:01:07.479Z,15.95
2017-05-12T06:01:32.950Z,15.97
2017-05-12T06:01:58.404Z,15.97
2017-05-12T06:02:23.890Z,15.92
2017-05-12T06:02:49.379Z,15.97
2017-05-12T06:03:14.828Z,15.94
2017-05-12T06:03:40.312Z,15.94
2017-05-12T06:04:05.771Z,15.92
2017-05-12T06:04:31.250Z,15.94
2017-05-12T06:04:56.742Z,15.94
2017-05-12T06:05:22.224Z,15.95
2017-05-12T06:05:47.701Z,15.91
2017-05-12T06:06:13.206Z,15.91
2017-05-12T06:06:38.677Z,15.94
2017-05-12T06:07:04.159Z,15.88
2017-05-12T06:07:29.625Z,15.94
2017-05-12T06:07:55.139Z,15.98
2017-05-12T06:08:20.618Z,15.97
2017-05-12T06:08:46.120Z,15.98
2017-05-12T06:09:11.609Z,15.84
2017-05-12T06:09:37.101Z,15.95
2017-05-12T06:10:02.583Z,15.92
2017-05-12T06:10:28.042Z,15.91
2017-05-12T06:10:53.532Z,15.92
2017-05-12T06:11:19.026Z,15.92
2017-05-12T06:11:44.529Z,15.88
2017-05-12T06:12:10.016Z,15.9
2017-05-12T06:12:35.500Z,15.94
2017-05-12T06:13:00.985Z,15.92
2017-05-12T06:13:26.459Z,15.84
2017-05-12T06:13:51.946Z,15.9
2017-05-12T06:14:17.411Z,15.9
2017-05-12T06:14:42.907Z,15.9
2017-05-12T06:15:08.389Z,15.84
2017-05-12T06:15:33.876Z,15.88
2017-05-12T06:15:59.375Z,15.97
2017-05-12T06:16:24.871Z,15.91
2017-05-12T06:16:50.356Z,15.9
2017-05-12T06:17:15.848Z,15.9
2017-05-12T06:17:41.355Z,15.97
2017-05-12T06:18:06.800Z,15.88
2017-05-12T06:18:32.325Z,15.97
2017-05-12T06:18:57.766Z,15.94
2017-05-12T06:19:23.255Z,15.91
2017-05-12T06:19:48.772Z,15.91
2017-05-12T06:20:14.229Z,15.88
2017-05-12T06:20:39.704Z,15.95
2017-05-12T06:21:05.164Z,15.92
2017-05-12T06:21:30.609Z,15.91
2017-05-12T06:21:56.092Z,15.91
2017-05-12T06:22:21.559Z,15.94
2017-05-12T06:22:47.072Z,15.9
2017-05-12T06:23:12.577Z,15.83
2017-05-12T06:23:38.026Z,15.83
2017-05-12T06:24:03.556Z,15.91
2017-05-12T06:24:29.013Z,15.73
2017-05-12T06:24:54.504Z,15.82
2017-05-12T06:25:19.992Z,15.73
2017-05-12T06:25:45.497Z,15.82
2017-05-12T06:26:10.969Z,15.76
2017-05-12T06:26:36.438Z,15.77
2017-05-12T06:27:01.905Z,15.73
2017-05-12T06:27:27.364Z,15.62
2017-05-12T06:27:52.837Z,15.67
2017-05-12T06:28:18.375Z,15.72
2017-05-12T06:28:43.873Z,15.61
2017-05-12T06:29:09.355Z,15.61
2017-05-12T06:29:34.869Z,15.61
2017-05-12T06:30:00.381Z,15.61
2017-05-12T06:30:25.821Z,15.64
2017-05-12T06:30:51.297Z,15.61
2017-05-12T06:31:16.759Z,15.62
2017-05-12T06:31:42.212Z,15.59
2017-05-12T06:32:07.683Z,15.57
2017-05-12T06:32:33.139Z,15.61
2017-05-12T06:32:58.645Z,15.61
2017-05-12T06:33:24.124Z,15.57
2017-05-12T06:33:49.590Z,15.65
2017-05-12T06:34:15.045Z,15.61
2017-05-12T06:34:40.509Z,15.62
2017-05-12T06:35:05.981Z,15.59
2017-05-12T06:35:31.446Z,15.57
2017-05-12T06:35:56.906Z,15.62
2017-05-12T06:36:22.374Z,15.62
2017-05-12T06:36:47.846Z,15.58
2017-05-12T06:37:13.323Z,15.58
2017-05-12T06:37:38.833Z,15.59
2017-05-12T06:38:04.286Z,15.58
2017-05-12T06:38:29.793Z,15.62
2017-05-12T06:38:55.254Z,15.57
2017-05-12T06:39:20.718Z,15.65
2017-05-12T06:39:46.205Z,15.64
2017-05-12T06:40:11.659Z,15.59
2017-05-12T06:40:37.126Z,15.59
2017-05-12T06:41:02.616Z,15.59
2017-05-12T06:41:28.091Z,15.59
2017-05-12T06:41:53.561Z,15.59
2017-05-12T06:42:19.015Z,15.59
2017-05-12T06:42:44.526Z,15.64
2017-05-12T06:43:09.999Z,15.59
2017-05-12T06:43:35.487Z,15.65
2017-05-12T06:44:00.945Z,15.57
2017-05-12T06:44:26.421Z,15.61
2017-05-12T06:44:51.912Z,15.62
2017-05-12T06:45:17.386Z,15.62
2017-05-12T06:45:42.828Z,15.64
2017-05-12T06:46:08.313Z,15.64
2017-05-12T06:46:33.753Z,15.61
2017-05-12T06:46:59.224Z,15.54
2017-05-12T06:47:24.725Z,15.58
2017-05-12T06:47:50.193Z,15.72
2017-05-12T06:48:15.666Z,15.67
2017-05-12T06:48:41.132Z,15.7
2017-05-12T06:49:06.623Z,15.7
2017-05-12T06:49:32.104Z,15.65
2017-05-12T06:49:57.577Z,15.72
2017-05-12T06:50:23.043Z,15.77
2017-05-12T06:50:48.523Z,15.68
2017-05-12T06:51:14.010Z,15.75
2017-05-12T06:51:39.516Z,15.77
2017-05-12T06:52:05.005Z,15.79
2017-05-12T06:52:30.467Z,15.77
2017-05-12T06:52:55.917Z,15.75
2017-05-12T06:53:21.394Z,15.83
2017-05-12T06:53:46.890Z,15.8
2017-05-12T06:54:12.384Z,15.79
2017-05-12T06:54:37.879Z,15.82
2017-05-12T06:55:03.345Z,15.75
2017-05-12T06:55:28.805Z,15.72
2017-05-12T06:55:54.265Z,15.86
2017-05-12T06:56:19.767Z,15.82
2017-05-12T06:56:45.246Z,15.83
2017-05-12T06:57:10.721Z,15.79
2017-05-12T06:57:36.183Z,15.84
2017-05-12T06:58:01.685Z,15.9
2017-05-12T06:58:27.168Z,15.83
2017-05-12T06:58:52.659Z,15.84
2017-05-12T06:59:18.128Z,15.83
2017-05-12T06:59:43.600Z,15.83
2017-05-12T07:00:09.076Z,15.9
2017-05-12T07:00:34.543Z,15.95
2017-05-12T07:00:59.994Z,15.84
2017-05-12T07:01:25.457Z,15.83
2017-05-12T07:01:50.941Z,15.83
2017-05-12T07:02:16.430Z,15.92
2017-05-12T07:02:41.888Z,16
2017-05-12T07:03:07.377Z,15.97
2017-05-12T07:03:32.853Z,15.97
2017-05-12T07:03:58.351Z,15.94
2017-05-12T07:04:23.815Z,15.94
2017-05-12T07:04:49.301Z,15.9
2017-05-12T07:05:14.795Z,15.97
2017-05-12T07:05:40.246Z,15.94
2017-05-12T07:06:05.702Z,15.98
2017-05-12T07:06:31.188Z,16.02
2017-05-12T07:06:56.663Z,15.94
2017-05-12T07:07:22.138Z,16.01
2017-05-12T07:07:47.643Z,16.09
2017-05-12T07:08:13.164Z,16.09
2017-05-12T07:08:38.597Z,16.08
2017-05-12T07:09:04.090Z,15.95
2017-05-12T07:09:29.574Z,15.98
2017-05-12T07:09:55.047Z,15.95
2017-05-12T07:10:20.525Z,15.92
2017-05-12T07:10:46.007Z,15.95
2017-05-12T07:11:11.505Z,15.95
2017-05-12T07:11:37.010Z,15.94
2017-05-12T07:12:02.497Z,16.02
2017-05-12T07:12:27.954Z,15.97
2017-05-12T07:12:53.441Z,15.94
2017-05-12T07:13:18.907Z,16
2017-05-12T07:13:44.406Z,16.01
2017-05-12T07:14:09.884Z,15.97
2017-05-12T07:14:35.351Z,15.98
2017-05-12T07:15:00.833Z,16.04
2017-05-12T07:15:26.294Z,16.02
2017-05-12T07:15:51.779Z,15.94
2017-05-12T07:16:17.280Z,16.05
2017-05-12T07:16:42.760Z,16.04
2017-05-12T07:17:08.224Z,16.1
2017-05-12T07:17:33.712Z,16.04
2017-05-12T07:17:59.197Z,16.05
2017-05-12T07:18:24.690Z,16.05
2017-05-12T07:18:50.157Z,16.01
2017-05-12T07:19:15.641Z,16.01
2017-05-12T07:19:41.113Z,16.17
2017-05-12T07:20:06.606Z,16.01
2017-05-12T07:20:32.068Z,16.1
2017-05-12T07:20:57.540Z,16.01
2017-05-12T07:21:23.007Z,16.13
2017-05-12T07:21:48.472Z,16.13
2017-05-12T07:22:13.950Z,16.13
2017-05-12T07:22:39.464Z,16.15
2017-05-12T07:23:04.874Z,16.12
2017-05-12T07:23:30.350Z,16.15
2017-05-12T07:23:55.847Z,16.17
2017-05-12T07:24:21.319Z,16.12
2017-05-12T07:24:46.811Z,16.21
2017-05-12T07:25:12.285Z,16.2
2017-05-12T07:25:37.772Z,16.23
2017-05-12T07:26:03.219Z,16.29
2017-05-12T07:26:28.689Z,16.21
2017-05-12T07:26:54.187Z,16.2
2017-05-12T07:27:19.677Z,16.26
2017-05-12T07:27:45.118Z,16.21
2017-05-12T07:28:10.590Z,16.28
2017-05-12T07:28:36.077Z,16.26
2017-05-12T07:29:01.546Z,16.2
2017-05-12T07:29:27.080Z,16.28
2017-05-12T07:29:52.547Z,16.28
2017-05-12T07:30:18.028Z,16.29
2017-05-12T07:30:43.506Z,16.23
2017-05-12T07:31:09.010Z,16.26
2017-05-12T07:31:34.505Z,16.28
2017-05-12T07:32:00.008Z,16.28
2017-05-12T07:32:25.493Z,16.23
2017-05-12T07:32:50.963Z,16.21
2017-05-12T07:33:16.441Z,16.17
2017-05-12T07:33:41.918Z,16.13
2017-05-12T07:34:07.395Z,16.2
2017-05-12T07:34:32.897Z,16.2
2017-05-12T07:34:58.357Z,16.24
2017-05-12T07:35:23.828Z,16.12
2017-05-12T07:35:49.331Z,16.17
2017-05-12T07:36:14.777Z,16.17
2017-05-12T07:36:40.264Z,16.13
2017-05-12T07:37:05.752Z,16.16
2017-05-12T07:37:31.209Z,16.17
2017-05-12T07:37:56.698Z,16.17
2017-05-12T07:38:22.180Z,16.09
2017-05-12T07:38:47.659Z,16.13
2017-05-12T07:39:13.161Z,16.1
2017-05-12T07:39:38.634Z,16.01
2017-05-12T07:40:04.117Z,16.13
2017-05-12T07:40:29.621Z,16.12
2017-05-12T07:40:55.067Z,16.12
2017-05-12T07:41:20.543Z,16.13
2017-05-12T07:41:46.022Z,16.12
2017-05-12T07:42:11.493Z,16.15
2017-05-12T07:42:36.969Z,16.13
2017-05-12T07:43:02.460Z,16.16
2017-05-12T07:43:27.945Z,16.21
2017-05-12T07:43:53.425Z,16.13
2017-05-12T07:44:18.926Z,16.13
2017-05-12T07:44:44.396Z,16.12
2017-05-12T07:45:09.897Z,16.09
2017-05-12T07:45:35.379Z,16.1
2017-05-12T07:46:00.889Z,16.08
2017-05-12T07:46:26.407Z,16.09
2017-05-12T07:46:51.840Z,16.1
2017-05-12T07:47:17.349Z,16
2017-05-12T07:47:42.839Z,16.05
2017-05-12T07:48:08.307Z,16.01
2017-05-12T07:48:33.765Z,16.02
2017-05-12T07:48:59.270Z,16.01
2017-05-12T07:49:24.773Z,15.92
2017-05-12T07:49:50.255Z,15.97
2017-05-12T07:50:15.749Z,15.91
2017-05-12T07:50:41.223Z,15.9
2017-05-12T07:51:06.701Z,15.94
2017-05-12T07:51:32.153Z,15.84
2017-05-12T07:51:57.623Z,15.82
2017-05-12T07:52:23.109Z,15.86
2017-05-12T07:52:48.579Z,15.84
2017-05-12T07:53:14.066Z,15.83
2017-05-12T07:53:39.548Z,15.95
2017-05-12T07:54:05.019Z,15.94
2017-05-12T07:54:30.532Z,15.92
2017-05-12T07:54:56.054Z,15.9
2017-05-12T07:55:21.493Z,15.83
2017-05-12T07:55:46.939Z,15.91
2017-05-12T07:56:12.402Z,15.88
2017-05-12T07:56:37.888Z,15.92
2017-05-12T07:57:03.356Z,15.94
2017-05-12T07:57:28.900Z,15.88
2017-05-12T07:57:54.376Z,15.86
2017-05-12T07:58:19.844Z,15.88
2017-05-12T07:58:45.318Z,15.98
2017-05-12T07:59:10.793Z,15.86
2017-05-12T07:59:36.231Z,15.92
2017-05-12T08:00:01.707Z,15.79
2017-05-12T08:00:27.190Z,15.9
2017-05-12T08:00:52.687Z,15.86
2017-05-12T08:01:18.171Z,15.82
2017-05-12T08:01:45.330Z,15.98
2017-05-12T08:02:10.793Z,15.88
2017-05-12T08:02:36.291Z,15.86
2017-05-12T08:03:01.749Z,15.84
2017-05-12T08:03:27.251Z,15.92
2017-05-12T08:03:52.717Z,16
2017-05-12T08:04:18.207Z,15.9
2017-05-12T08:04:43.689Z,15.86
2017-05-12T08:05:09.185Z,15.95
2017-05-12T08:05:34.636Z,15.82
2017-05-12T08:06:00.095Z,15.84
2017-05-12T08:06:25.584Z,15.86
2017-05-12T08:06:51.051Z,15.82
2017-05-12T08:07:16.521Z,15.88
2017-05-12T08:07:42.026Z,15.86
2017-05-12T08:08:07.477Z,15.95
2017-05-12T08:08:32.942Z,15.84
2017-05-12T08:08:58.439Z,15.92
2017-05-12T08:09:23.899Z,15.95
2017-05-12T08:09:49.399Z,15.98
2017-05-12T08:10:14.900Z,15.88
2017-05-12T08:10:40.370Z,15.97
2017-05-12T08:11:05.869Z,15.97
2017-05-12T08:11:31.359Z,15.98
2017-05-12T08:11:56.840Z,16
2017-05-12T08:12:22.323Z,15.97
2017-05-12T08:12:47.816Z,15.97
2017-05-12T08:13:13.306Z,15.95
2017-05-12T08:13:38.802Z,15.97
2017-05-12T08:14:04.260Z,16.05
2017-05-12T08:14:29.715Z,16.21
2017-05-12T08:14:55.203Z,16.12
2017-05-12T08:15:20.671Z,16.16
2017-05-12T08:15:46.134Z,16.12
2017-05-12T08:16:11.619Z,16.12
2017-05-12T08:16:37.068Z,16.15
2017-05-12T08:17:02.579Z,16.17
2017-05-12T08:17:28.017Z,16.24
2017-05-12T08:17:53.524Z,16.29
2017-05-12T08:18:19.014Z,16.29
2017-05-12T08:18:44.489Z,16.31
2017-05-12T08:19:09.978Z,16.23
2017-05-12T08:19:35.445Z,16.31
2017-05-12T08:20:00.939Z,16.24
2017-05-12T08:20:26.423Z,16.21
2017-05-12T08:20:51.928Z,16.23
2017-05-12T08:21:17.399Z,16.35
2017-05-12T08:21:42.874Z,16.29
2017-05-12T08:22:08.362Z,16.36
2017-05-12T08:22:33.839Z,16.35
2017-05-12T08:22:59.339Z,16.32
2017-05-12T08:23:24.822Z,16.36
2017-05-12T08:23:50.317Z,16.35
2017-05-12T08:24:15.763Z,16.31
2017-05-12T08:24:41.256Z,16.33
2017-05-12T08:25:06.738Z,16.38
2017-05-12T08:25:32.173Z,16.31
2017-05-12T08:25:57.648Z,16.33
2017-05-12T08:26:23.121Z,16.35
2017-05-12T08:26:48.592Z,16.31
2017-05-12T08:27:14.070Z,16.35
2017-05-12T08:27:39.570Z,16.36
2017-05-12T08:28:05.055Z,16.33
2017-05-12T08:28:30.537Z,16.42
2017-05-12T08:28:55.988Z,16.39
2017-05-12T08:29:21.494Z,16.41
2017-05-12T08:29:46.988Z,16.41
2017-05-12T08:30:12.478Z,16.42
2017-05-12T08:30:37.965Z,16.38
2017-05-12T08:31:03.452Z,16.43
2017-05-12T08:31:28.938Z,16.39
2017-05-12T08:31:54.415Z,16.36
2017-05-12T08:32:19.886Z,16.49
2017-05-12T08:32:45.409Z,16.43
2017-05-12T08:33:10.877Z,16.5
2017-05-12T08:33:36.344Z,16.47
2017-05-12T08:34:01.812Z,16.51
2017-05-12T08:34:27.318Z,16.54
2017-05-12T08:34:52.814Z,16.58
2017-05-12T08:35:18.322Z,16.58
2017-05-12T08:35:43.851Z,16.58
2017-05-12T08:36:09.274Z,16.68
2017-05-12T08:36:34.783Z,16.64
2017-05-12T08:37:00.239Z,16.69
2017-05-12T08:37:25.700Z,16.75
2017-05-12T08:37:51.162Z,16.68
2017-05-12T08:38:16.683Z,16.81
2017-05-12T08:38:42.163Z,16.78
2017-05-12T08:39:07.635Z,16.84
2017-05-12T08:39:33.136Z,16.89
2017-05-12T08:39:58.642Z,16.9
2017-05-12T08:40:24.106Z,16.86
2017-05-12T08:40:49.553Z,16.91
2017-05-12T08:41:15.046Z,16.97
2017-05-12T08:41:40.526Z,17.01
2017-05-12T08:42:06.016Z,16.99
2017-05-12T08:42:31.488Z,17.02
2017-05-12T08:42:56.956Z,17.09
2017-05-12T08:43:22.443Z,17.08
2017-05-12T08:43:47.930Z,17.11
2017-05-12T08:44:13.400Z,17.19
2017-05-12T08:44:38.858Z,17.27
2017-05-12T08:45:04.354Z,17.19
2017-05-12T08:45:29.841Z,17.16
2017-05-12T08:45:55.347Z,17.22
2017-05-12T08:46:20.832Z,17.33
2017-05-12T08:46:46.304Z,17.33
2017-05-12T08:47:11.761Z,17.29
2017-05-12T08:47:37.210Z,17.33
2017-05-12T08:48:02.690Z,17.2
2017-05-12T08:49:00.936Z,17.22
2017-05-12T08:49:26.435Z,17.19
2017-05-12T08:49:51.892Z,17.23
2017-05-12T08:50:17.382Z,17.19
2017-05-12T08:50:42.875Z,17.2
2017-05-12T08:51:08.360Z,17.2
2017-05-12T08:51:33.848Z,17.22
2017-05-12T08:51:59.324Z,17.19
2017-05-12T08:52:24.823Z,17.23
2017-05-12T08:52:50.321Z,17.16
2017-05-12T08:53:15.818Z,17.12
2017-05-12T08:53:41.301Z,17.11
2017-05-12T08:54:06.790Z,17.16
2017-05-12T08:54:32.257Z,17.08
2017-05-12T08:54:57.737Z,17.09
2017-05-12T08:55:23.327Z,17.11
2017-05-12T08:55:48.813Z,17.05
2017-05-12T08:56:14.312Z,17.05
2017-05-12T08:56:39.852Z,17.11
2017-05-12T08:57:05.347Z,16.97
2017-05-12T08:57:30.816Z,17.01
2017-05-12T08:57:56.299Z,17.02
2017-05-12T08:58:21.785Z,17.09
2017-05-12T08:58:47.292Z,17.08
2017-05-12T08:59:12.799Z,17.05
2017-05-12T08:59:38.725Z,17.12
2017-05-12T09:00:04.205Z,17.14
2017-05-12T09:00:29.674Z,17.19
2017-05-12T09:00:55.173Z,17.08
2017-05-12T09:01:20.626Z,17.15
2017-05-12T09:01:46.114Z,17.09
2017-05-12T09:02:11.813Z,17.12
2017-05-12T09:02:37.295Z,17.14
2017-05-12T09:03:02.914Z,17.12
2017-05-12T09:03:28.820Z,17.15
2017-05-12T09:03:54.296Z,17.16
2017-05-12T09:04:19.793Z,17.15
2017-05-12T09:04:45.301Z,17.19
2017-05-12T09:05:10.793Z,17.26
2017-05-12T09:05:36.293Z,17.16
2017-05-12T09:06:01.745Z,17.2
2017-05-12T09:06:27.211Z,17.2
2017-05-12T09:06:52.672Z,17.22
2017-05-12T09:07:18.174Z,17.2
2017-05-12T09:07:43.656Z,17.16
2017-05-12T09:08:09.142Z,17.24
2017-05-12T09:08:34.589Z,17.19
2017-05-12T09:09:00.069Z,17.22
2017-05-12T09:09:25.601Z,17.2
2017-05-12T09:09:51.081Z,17.26
2017-05-12T09:10:16.549Z,17.19
2017-05-12T09:10:42.046Z,17.19
2017-05-12T09:11:07.534Z,17.14
2017-05-12T09:11:33.075Z,17.14
2017-05-12T09:11:58.570Z,17.08
2017-05-12T09:12:24.085Z,17.08
2017-05-12T09:12:49.567Z,17.02
2017-05-12T09:13:15.028Z,17.12
2017-05-12T09:13:40.523Z,16.99
2017-05-12T09:14:06.030Z,17.02
2017-05-12T09:14:31.501Z,17.04
2017-05-12T09:14:56.988Z,17.05
2017-05-12T09:15:22.486Z,16.99
2017-05-12T09:15:47.970Z,17.05
2017-05-12T09:16:13.440Z,17.06
2017-05-12T09:16:38.943Z,17.04
2017-05-12T09:17:04.406Z,17.01
2017-05-12T09:17:29.871Z,16.96
2017-05-12T09:17:55.360Z,17.02
2017-05-12T09:18:20.830Z,17.01
2017-05-12T09:18:46.297Z,16.91
2017-05-12T09:19:11.777Z,16.94
2017-05-12T09:19:37.259Z,16.91
2017-05-12T09:20:02.716Z,16.83
2017-05-12T09:20:28.224Z,16.87
2017-05-12T09:20:53.685Z,16.87
2017-05-12T09:21:19.176Z,16.89
2017-05-12T09:21:44.632Z,16.89
2017-05-12T09:22:10.089Z,16.84
2017-05-12T09:22:35.608Z,16.83
2017-05-12T09:23:01.108Z,16.79
2017-05-12T09:23:26.593Z,16.81
2017-05-12T09:23:52.057Z,16.65
2017-05-12T09:24:17.528Z,16.78
2017-05-12T09:24:42.967Z,16.74
2017-05-12T09:25:08.451Z,16.68
2017-05-12T09:25:33.918Z,16.72
2017-05-12T09:25:59.372Z,16.66
2017-05-12T09:26:24.849Z,16.66
2017-05-12T09:26:50.303Z,16.68
2017-05-12T09:27:15.804Z,16.65
2017-05-12T09:27:41.293Z,16.79
2017-05-12T09:28:06.793Z,16.75
2017-05-12T09:28:32.243Z,16.84
2017-05-12T09:28:57.717Z,16.86
2017-05-12T09:29:23.209Z,17.01
2017-05-12T09:29:48.680Z,16.99
2017-05-12T09:30:14.175Z,17.06
2017-05-12T09:30:39.661Z,17.11
2017-05-12T09:31:05.125Z,17.06
2017-05-12T09:31:30.590Z,17.15
2017-05-12T09:31:56.106Z,17.14
2017-05-12T09:32:21.680Z,17.14
2017-05-12T09:32:47.228Z,17.22
2017-05-12T09:33:12.709Z,17.16
2017-05-12T09:33:38.180Z,17.26
2017-05-12T09:34:03.647Z,17.2
2017-05-12T09:34:29.147Z,17.36
2017-05-12T09:34:54.620Z,17.22
2017-05-12T09:35:20.145Z,17.33
2017-05-12T09:35:45.626Z,17.29
2017-05-12T09:36:11.099Z,17.31
2017-05-12T09:36:36.588Z,17.33
2017-05-12T09:37:02.071Z,17.34
2017-05-12T09:37:27.559Z,17.36
2017-05-12T09:37:53.037Z,17.41
2017-05-12T09:38:18.532Z,17.38
2017-05-12T09:38:44.008Z,17.46
2017-05-12T09:39:09.487Z,17.41
2017-05-12T09:39:34.969Z,17.51
2017-05-12T09:40:00.457Z,17.39
2017-05-12T09:40:25.936Z,17.46
2017-05-12T09:40:51.427Z,17.46
2017-05-12T09:41:16.912Z,17.6
2017-05-12T09:41:42.375Z,17.56
2017-05-12T09:42:07.857Z,17.63
2017-05-12T09:42:33.335Z,17.65
2017-05-12T09:42:58.830Z,17.68
2017-05-12T09:43:24.310Z,17.76
2017-05-12T09:43:49.804Z,17.79
2017-05-12T09:44:15.270Z,17.82
2017-05-12T09:44:40.763Z,17.89
2017-05-12T09:45:06.238Z,17.89
2017-05-12T09:45:31.711Z,17.95
2017-05-12T09:45:57.206Z,17.98
2017-05-12T09:46:22.685Z,18.1
2017-05-12T09:46:48.177Z,18.07
2017-05-12T09:47:13.656Z,18.23
2017-05-12T09:47:39.129Z,18.28
2017-05-12T09:48:04.613Z,18.16
2017-05-12T09:48:30.105Z,18.22
2017-05-12T09:48:55.582Z,18.29
2017-05-12T09:49:21.032Z,18.34
2017-05-12T09:49:46.543Z,18.34
2017-05-12T09:50:12.051Z,18.31
2017-05-12T09:50:37.542Z,18.37
2017-05-12T09:51:03.046Z,18.4
2017-05-12T09:51:28.507Z,18.37
2017-05-12T09:51:53.967Z,18.4
2017-05-12T09:52:19.445Z,18.38
2017-05-12T09:52:44.937Z,18.45
2017-05-12T09:53:10.408Z,18.35
2017-05-12T09:53:35.901Z,18.34
2017-05-12T09:54:01.385Z,18.35
2017-05-12T09:54:26.880Z,18.37
2017-05-12T09:54:52.342Z,18.35
2017-05-12T09:55:17.842Z,18.4
2017-05-12T09:55:43.334Z,18.28
2017-05-12T09:56:08.791Z,18.34
2017-05-12T09:56:34.314Z,18.34
2017-05-12T09:56:59.745Z,18.34
2017-05-12T09:57:25.250Z,18.37
2017-05-12T09:57:50.756Z,18.31
2017-05-12T09:58:16.223Z,18.41
2017-05-12T09:58:41.715Z,18.31
2017-05-12T09:59:07.223Z,18.34
2017-05-12T09:59:32.709Z,18.37
2017-05-12T09:59:58.208Z,18.38
2017-05-12T10:00:23.700Z,18.44
2017-05-12T10:00:49.193Z,18.38
2017-05-12T10:01:14.683Z,18.38
2017-05-12T10:01:40.143Z,18.37
2017-05-12T10:02:05.650Z,18.37
2017-05-12T10:02:31.131Z,18.33
2017-05-12T10:02:56.626Z,18.37
2017-05-12T10:03:22.130Z,18.37
2017-05-12T10:03:47.623Z,18.35
2017-05-12T10:04:13.137Z,18.4
2017-05-12T10:04:38.650Z,18.35
2017-05-12T10:05:04.094Z,18.28
2017-05-12T10:05:29.604Z,18.38
2017-05-12T10:05:55.082Z,18.34
2017-05-12T10:06:20.550Z,18.26
2017-05-12T10:06:46.039Z,18.34
2017-05-12T10:07:11.512Z,18.35
2017-05-12T10:07:36.984Z,18.28
2017-05-12T10:08:02.487Z,18.25
2017-05-12T10:08:27.976Z,18.28
2017-05-12T10:08:53.471Z,18.31
2017-05-12T10:09:18.947Z,18.23
2017-05-12T10:09:44.427Z,18.23
2017-05-12T10:10:09.899Z,18.25
2017-05-12T10:10:35.389Z,18.19
2017-05-12T10:11:00.880Z,18.18
2017-05-12T10:11:26.335Z,18.22
2017-05-12T10:11:51.829Z,18.13
2017-05-12T10:12:17.302Z,18.23
2017-05-12T10:12:42.784Z,18.22
2017-05-12T10:13:08.271Z,18.2
2017-05-12T10:13:33.800Z,18.2
2017-05-12T10:13:59.280Z,18.13